Time,TemperatureF,DewpointF,PressureIn,WindDirection,WindDirectionDegrees,WindSpeedMPH,WindSpeedGustMPH,Humidity,HourlyPrecipIn,Conditions,Clouds,dailyrainin,SoftwareType,DateUTC
2013-01-11 22:14:00,47.8,45.6,29.82,WSW,240,7.0,7.0,92,0.00,,---,0.00,VWS V14.00,2013-01-12 03:14:00,
2013-01-11 22:19:00,47.8,45.6,29.82,WSW,258,6.0,10.0,92,0.00,,---,0.00,VWS V14.00,2013-01-12 03:19:00,
2013-01-11 22:24:00,47.8,45.6,29.81,WSW,237,6.0,10.0,92,0.00,,---,0.00,VWS V14.00,2013-01-12 03:24:00,
2013-01-11 22:29:00,47.7,45.5,29.81,West,273,9.0,11.0,92,0.00,,---,0.00,VWS V14.00,2013-01-12 03:29:00,
2013-01-11 22:34:00,47.8,45.6,29.81,WSW,241,7.0,10.0,92,0.00,,---,0.00,VWS V14.00,2013-01-12 03:34:00,
2013-01-11 22:39:00,47.8,45.6,29.81,WSW,248,6.0,11.0,92,0.00,,---,0.00,VWS V14.00,2013-01-12 03:39:00,
2013-01-11 22:44:00,47.6,45.4,29.81,WSW,249,5.0,11.0,92,0.00,,---,0.00,VWS V14.00,2013-01-12 03:44:00,
2013-01-11 22:49:00,47.6,45.4,29.81,West,269,7.0,11.0,92,0.00,,---,0.00,VWS V14.00,2013-01-12 03:49:00,
2013-01-11 22:54:00,47.6,45.4,29.81,WSW,249,5.0,11.0,92,0.00,,---,0.00,VWS V14.00,2013-01-12 03:54:00,
2013-01-11 22:59:00,47.5,45.6,29.81,West,272,8.0,11.0,93,0.00,,---,0.00,VWS V14.00,2013-01-12 03:59:00,
2013-01-11 23:04:00,47.5,45.6,29.80,West,268,6.0,8.0,93,0.00,,---,0.00,VWS V14.00,2013-01-12 04:04:00,
2013-01-11 23:09:00,47.4,45.5,29.80,WSW,258,9.0,9.0,93,0.00,,---,0.00,VWS V14.00,2013-01-12 04:09:00,
2013-01-11 23:14:00,47.5,45.6,29.80,WSW,251,8.0,11.0,93,0.00,,---,0.00,VWS V14.00,2013-01-12 04:14:00,
2013-01-11 23:19:00,47.5,45.6,29.80,West,260,8.0,11.0,93,0.00,,---,0.00,VWS V14.00,2013-01-12 04:19:00,
2013-01-11 23:24:00,47.5,45.6,29.80,WSW,254,8.0,11.0,93,0.00,,---,0.00,VWS V14.00,2013-01-12 04:24:00,
2013-01-11 23:29:00,47.7,45.8,29.80,WSW,258,7.0,12.0,93,0.00,,---,0.00,VWS V14.00,2013-01-12 04:29:00,
2013-01-11 23:34:00,47.7,45.8,29.80,WSW,247,5.0,10.0,93,0.00,,---,0.00,VWS V14.00,2013-01-12 04:34:00,
2013-01-11 23:39:00,47.6,45.7,29.79,West,261,8.0,11.0,93,0.00,,---,0.00,VWS V14.00,2013-01-12 04:39:00,
2013-01-11 23:44:00,47.5,45.6,29.79,West,267,8.0,11.0,93,0.00,,---,0.00,VWS V14.00,2013-01-12 04:44:00,
2013-01-11 23:49:00,47.4,45.5,29.80,WSW,248,8.0,11.0,93,0.00,,---,0.00,VWS V14.00,2013-01-12 04:49:00,
2013-01-11 23:54:00,47.4,45.5,29.80,WSW,251,8.0,12.0,93,0.00,,---,0.00,VWS V14.00,2013-01-12 04:54:00,
2013-01-11 23:59:00,47.6,45.7,29.80,West,259,7.0,12.0,93,0.00,,---,0.00,VWS V14.00,2013-01-12 04:59:00,